Time;durP1;ratioP1;P1;durP2;ratioP2;P2;SDS_P1;SDS_P2;PMS_P1;PMS_P2;Temp;Humidity;BMP_temperature;BMP_pressure;BME280_temperature;BME280_humidity;BME280_pressure;Samples;Min_cycle;Max_cycle;Signal;HPM_P1;HPM_P2
2022/07/15 00:08:23;;;;;;;2.53;0.70;;;21.00;53.30;;;;;;20626274;28;20437;-75
2022/07/15 00:18:24;;;;;;;1.95;0.60;;;21.00;53.40;;;;;;20642125;28;20084;-75
2022/07/15 00:28:25;;;;;;;2.45;1.20;;;21.00;53.60;;;;;;20641191;28;20042;-75
2022/07/15 00:38:25;;;;;;;3.60;0.70;;;20.90;53.70;;;;;;20624414;28;20034;-75
2022/07/15 00:48:26;;;;;;;4.55;1.10;;;20.80;53.90;;;;;;20640671;28;20527;-76
2022/07/15 00:58:27;;;;;;;3.45;0.80;;;20.80;54.10;;;;;;20962798;23;20515;-75
2022/07/15 01:08:27;;;;;;;3.10;1.03;;;20.70;54.10;;;;;;20630097;28;20039;-74
2022/07/15 01:18:28;;;;;;;4.72;1.33;;;20.70;54.20;;;;;;20629367;28;20902;-75
2022/07/15 01:28:29;;;;;;;2.65;0.82;;;20.60;54.40;;;;;;20633799;28;20121;-76
2022/07/15 01:38:31;;;;;;;2.17;0.75;;;20.60;54.50;;;;;;20612841;28;20118;-77
2022/07/15 01:59:14;;;;;;;5.82;1.05;;;20.50;54.80;;;;;;20654942;28;20043;-75
2022/07/15 02:09:15;;;;;;;1.88;0.85;;;20.50;55.00;;;;;;20642833;28;20044;-74
2022/07/15 02:19:19;;;;;;;4.78;1.90;;;20.40;55.10;;;;;;20613864;28;20038;-75
2022/07/15 02:29:20;;;;;;;3.13;1.00;;;20.40;55.20;;;;;;20611447;28;20042;-75
2022/07/15 02:39:22;;;;;;;2.60;0.80;;;20.30;55.30;;;;;;20610416;28;20030;-75
2022/07/15 02:49:23;;;;;;;3.78;0.80;;;20.30;55.40;;;;;;20609519;28;20471;-75
2022/07/15 02:59:25;;;;;;;2.45;1.05;;;20.30;55.50;;;;;;20645559;28;20043;-76
2022/07/15 03:09:29;;;;;;;5.55;1.17;;;20.20;55.50;;;;;;20631471;28;20066;-75
2022/07/15 03:19:29;;;;;;;4.07;1.00;;;20.20;55.50;;;;;;20622754;28;20038;-75
2022/07/15 03:29:30;;;;;;;2.90;0.73;;;20.20;55.60;;;;;;20603759;28;20290;-76
2022/07/15 03:39:31;;;;;;;2.72;0.80;;;20.10;56.20;;;;;;20606003;28;20427;-75
2022/07/15 03:49:32;;;;;;;1.63;0.73;;;20.10;55.50;;;;;;20622165;28;20046;-75
2022/07/15 03:59:33;;;;;;;4.03;0.93;;;20.10;55.50;;;;;;20625105;28;20026;-76
2022/07/15 04:09:34;;;;;;;3.30;0.90;;;20.10;55.50;;;;;;20619716;28;20031;-76
2022/07/15 04:19:34;;;;;;;5.22;1.60;;;20.10;55.40;;;;;;20602622;28;20121;-75
2022/07/15 04:29:37;;;;;;;5.28;1.00;;;20.10;55.50;;;;;;20607558;28;20559;-75
2022/07/15 04:39:40;;;;;;;3.35;1.00;;;20.10;55.50;;;;;;20619532;28;20098;-75
2022/07/15 05:00:02;;;;;;;2.78;0.75;;;20.10;55.50;;;;;;20665126;28;20453;-77
2022/07/15 05:10:08;;;;;;;4.88;1.15;;;20.10;55.50;;;;;;20674502;28;20183;-77
2022/07/15 05:20:11;;;;;;;2.55;0.60;;;20.10;55.60;;;;;;20643048;28;20469;-77
2022/07/15 05:30:16;;;;;;;2.92;0.57;;;20.10;55.60;;;;;;20658644;28;20034;-81
2022/07/15 05:40:17;;;;;;;2.70;0.70;;;20.20;55.60;;;;;;20670739;28;20370;-74
2022/07/15 05:50:24;;;;;;;4.40;1.60;;;20.10;55.60;;;;;;20633225;28;20042;-74
2022/07/15 06:00:29;;;;;;;3.23;0.83;;;20.20;55.90;;;;;;20622914;28;20112;-74
2022/07/15 06:10:30;;;;;;;3.75;1.40;;;20.20;56.00;;;;;;20626575;28;20042;-75
2022/07/15 06:20:31;;;;;;;2.33;0.93;;;20.20;56.10;;;;;;20629990;28;20030;-76
2022/07/15 06:30:34;;;;;;;6.07;0.98;;;20.20;56.30;;;;;;20639781;28;20489;-75
2022/07/15 06:40:35;;;;;;;2.50;0.95;;;20.20;56.40;;;;;;20651873;28;20038;-75
2022/07/15 06:50:36;;;;;;;1.20;0.70;;;20.20;56.40;;;;;;20611084;28;20081;-76
2022/07/15 07:00:36;;;;;;;8.00;1.20;;;20.20;56.50;;;;;;20652260;28;20117;-78
2022/07/15 07:10:37;;;;;;;3.28;1.10;;;20.30;56.50;;;;;;20596415;28;20076;-76
2022/07/15 07:20:38;;;;;;;1.60;0.80;;;20.30;56.40;;;;;;20620157;28;20042;-73
2022/07/15 07:30:38;;;;;;;4.70;0.68;;;20.20;56.20;;;;;;20602729;28;20297;-76
2022/07/15 07:40:39;;;;;;;3.10;0.73;;;20.20;56.10;;;;;;20624535;28;20034;-77
2022/07/15 07:50:40;;;;;;;3.00;0.75;;;20.20;56.00;;;;;;20612672;28;20042;-78
2022/07/15 08:00:40;;;;;;;1.90;0.60;;;20.30;55.80;;;;;;20652053;28;20453;-76
2022/07/15 08:10:42;;;;;;;4.23;0.80;;;20.30;55.60;;;;;;20623427;28;20065;-77
2022/07/15 08:20:42;;;;;;;2.30;0.40;;;20.30;55.30;;;;;;20680305;28;20355;-77
2022/07/15 08:30:43;;;;;;;3.20;0.70;;;20.30;55.10;;;;;;20679688;28;20103;-76
2022/07/15 08:40:44;;;;;;;0.98;0.38;;;20.30;54.90;;;;;;20679333;28;20035;-76
2022/07/15 08:50:44;;;;;;;0.73;0.40;;;20.30;54.70;;;;;;20642087;28;20038;-75
2022/07/15 09:00:45;;;;;;;2.35;0.50;;;20.30;54.60;;;;;;20659669;28;20117;-76
2022/07/15 09:11:01;;;;;;;1.98;0.40;;;20.30;54.50;;;;;;20677626;28;20038;-78
2022/07/15 09:21:02;;;;;;;4.20;0.52;;;20.30;54.40;;;;;;20636979;28;20038;-71
2022/07/15 09:41:36;;;;;;;1.40;0.35;;;20.30;55.00;;;;;;20634366;28;20135;-76
2022/07/15 09:51:44;;;;;;;1.33;0.50;;;20.40;54.40;;;;;;20620538;28;20034;-74
2022/07/15 10:01:47;;;;;;;4.55;0.40;;;20.30;54.40;;;;;;20605693;28;20046;-74
2022/07/15 10:11:49;;;;;;;1.48;0.40;;;20.30;55.00;;;;;;20639727;28;20549;-73
2022/07/15 10:22:07;;;;;;;1.50;0.50;;;20.30;54.30;;;;;;20625847;28;20404;-75
2022/07/15 10:32:08;;;;;;;2.38;0.50;;;20.40;54.30;;;;;;20641390;28;20030;-74
2022/07/15 10:42:08;;;;;;;4.80;1.00;;;20.40;54.10;;;;;;20637634;28;20117;-73
2022/07/15 10:52:16;;;;;;;5.43;0.60;;;20.30;53.70;;;;;;20636737;28;20034;-73
2022/07/15 11:02:17;;;;;;;1.55;0.40;;;20.30;53.30;;;;;;20631151;28;20042;-77
2022/07/15 11:12:20;;;;;;;0.85;0.38;;;20.30;53.20;;;;;;20651316;28;20039;-75
2022/07/15 11:22:21;;;;;;;4.00;0.52;;;20.30;53.20;;;;;;20589041;28;20069;-73
2022/07/15 11:32:22;;;;;;;1.00;0.40;;;20.30;53.40;;;;;;20650788;28;20033;-73
2022/07/15 11:52:42;;;;;;;0.45;0.35;;;20.40;53.80;;;;;;20637009;28;20423;-72
2022/07/15 12:02:43;;;;;;;1.55;0.40;;;20.40;53.90;;;;;;20644486;28;20113;-73
2022/07/15 12:12:56;;;;;;;1.20;0.40;;;20.40;53.90;;;;;;20639064;28;20030;-72
2022/07/15 12:23:08;;;;;;;1.80;0.90;;;20.40;54.70;;;;;;20617713;28;20073;-71
2022/07/15 12:33:22;;;;;;;1.77;0.47;;;20.50;54.10;;;;;;20634464;28;20030;-76
2022/07/15 12:43:46;;;;;;;1.05;0.30;;;20.40;54.00;;;;;;20647883;28;20039;-76
2022/07/15 12:53:46;;;;;;;1.27;0.40;;;20.50;54.00;;;;;;20639106;28;20042;-79
2022/07/15 13:03:47;;;;;;;2.27;0.33;;;20.50;54.30;;;;;;20627726;28;20138;-74
2022/07/15 13:13:47;;;;;;;1.52;0.50;;;20.50;54.10;;;;;;20643833;28;20292;-75
2022/07/15 13:23:48;;;;;;;1.77;0.30;;;20.50;53.80;;;;;;20640727;28;20117;-75
2022/07/15 13:33:48;;;;;;;3.22;0.50;;;20.50;53.50;;;;;;20620294;28;20027;-75
2022/07/15 13:43:49;;;;;;;1.15;0.38;;;20.60;53.20;;;;;;20653722;28;20117;-76
2022/07/15 13:53:53;;;;;;;2.93;0.53;;;20.60;53.00;;;;;;20635046;28;20034;-78
2022/07/15 14:03:54;;;;;;;0.75;0.32;;;20.70;53.40;;;;;;20632800;28;20302;-79
2022/07/15 14:13:55;;;;;;;0.77;0.30;;;20.60;53.40;;;;;;20636692;28;20038;-78
2022/07/15 14:23:55;;;;;;;1.23;0.37;;;20.70;53.60;;;;;;20613243;28;20385;-77
2022/07/15 14:33:56;;;;;;;4.13;0.32;;;20.70;53.70;;;;;;20622291;28;20296;-79
2022/07/15 14:43:56;;;;;;;1.55;0.55;;;20.60;53.70;;;;;;20605422;28;20049;-81
2022/07/15 14:53:57;;;;;;;1.38;0.35;;;20.60;53.90;;;;;;20624925;28;20094;-78
2022/07/15 15:03:58;;;;;;;2.83;0.50;;;20.70;54.10;;;;;;20636829;28;20370;-78
2022/07/15 15:13:59;;;;;;;1.75;0.30;;;20.70;54.30;;;;;;20623430;28;20556;-75
2022/07/15 15:23:59;;;;;;;0.82;0.50;;;20.70;54.40;;;;;;20638363;28;20090;-80
2022/07/15 15:34:00;;;;;;;1.45;0.60;;;20.70;54.50;;;;;;20632238;28;20121;-78
2022/07/15 15:44:01;;;;;;;1.77;0.28;;;20.70;54.40;;;;;;20606485;28;20073;-74
2022/07/15 15:54:01;;;;;;;0.43;0.20;;;20.70;54.30;;;;;;20615985;28;20122;-78
2022/07/15 16:04:02;;;;;;;0.45;0.20;;;20.80;54.30;;;;;;20603542;28;20030;-74
2022/07/15 16:14:02;;;;;;;1.60;0.22;;;20.90;54.10;;;;;;20633414;28;20030;-74
2022/07/15 16:24:03;;;;;;;2.30;0.30;;;20.90;53.90;;;;;;20601365;28;20040;-74
2022/07/15 16:34:04;;;;;;;6.50;0.40;;;20.80;53.60;;;;;;20632466;28;20117;-75
2022/07/15 16:44:04;;;;;;;1.60;0.43;;;20.70;53.90;;;;;;20583407;28;20045;-74
2022/07/15 16:54:05;;;;;;;10.63;0.73;;;20.80;54.60;;;;;;20640372;28;20034;-74
2022/07/15 17:04:05;;;;;;;0.55;0.32;;;20.80;55.30;;;;;;20629817;28;20046;-74
2022/07/15 17:14:06;;;;;;;3.90;0.30;;;20.70;56.90;;;;;;20588782;28;20131;-75
2022/07/15 17:24:07;;;;;;;0.57;0.38;;;20.70;57.80;;;;;;20622181;28;20047;-73
2022/07/15 17:34:08;;;;;;;2.35;0.40;;;20.60;57.90;;;;;;20607944;28;20086;-73
2022/07/15 17:44:08;;;;;;;1.85;0.60;;;20.60;58.10;;;;;;20631071;28;20130;-73
2022/07/15 17:54:09;;;;;;;1.95;0.60;;;20.60;58.50;;;;;;20651951;28;20031;-72
2022/07/15 18:04:10;;;;;;;3.83;0.47;;;20.60;58.90;;;;;;20635268;28;20034;-72
2022/07/15 18:14:10;;;;;;;0.93;0.40;;;20.60;59.30;;;;;;20656605;28;20121;-73
2022/07/15 18:24:11;;;;;;;6.67;0.50;;;20.50;59.70;;;;;;20607654;28;20397;-73
2022/07/15 18:34:11;;;;;;;4.53;0.30;;;20.50;60.00;;;;;;20624427;28;20376;-74
2022/07/15 18:44:12;;;;;;;1.92;0.40;;;20.50;60.70;;;;;;20610090;28;20038;-75
2022/07/15 18:54:13;;;;;;;1.08;0.30;;;20.40;61.10;;;;;;20613775;28;20432;-75
2022/07/15 19:04:14;;;;;;;1.88;0.32;;;20.40;61.30;;;;;;20610337;28;20068;-74
2022/07/15 19:14:15;;;;;;;1.27;0.40;;;20.30;61.40;;;;;;20635748;28;20030;-74
2022/07/15 19:24:15;;;;;;;0.80;0.30;;;20.40;61.30;;;;;;20591251;28;20133;-75
2022/07/15 19:34:16;;;;;;;2.25;0.30;;;20.30;61.20;;;;;;20620743;28;20031;-74
2022/07/15 19:44:17;;;;;;;0.70;0.38;;;20.30;61.10;;;;;;20588868;28;20042;-76
2022/07/15 19:54:17;;;;;;;1.38;0.30;;;20.20;60.90;;;;;;20626152;28;20122;-75
2022/07/15 20:04:18;;;;;;;2.53;0.63;;;20.20;60.70;;;;;;20620584;28;20046;-75
2022/07/15 20:14:18;;;;;;;1.13;0.30;;;20.10;60.50;;;;;;20601658;28;20401;-74
2022/07/15 20:24:19;;;;;;;0.53;0.20;;;20.10;60.40;;;;;;20602414;28;20036;-75
2022/07/15 20:34:20;;;;;;;0.47;0.30;;;20.10;60.30;;;;;;20634865;28;20263;-75
2022/07/15 20:44:20;;;;;;;1.02;0.30;;;20.10;60.10;;;;;;20623174;28;20047;-77
2022/07/15 20:54:28;;;;;;;0.98;0.52;;;20.10;60.00;;;;;;20619965;28;20046;-76
2022/07/15 21:04:28;;;;;;;0.45;0.40;;;20.00;59.90;;;;;;20658913;28;20044;-75
2022/07/15 21:14:29;;;;;;;1.30;0.40;;;20.00;59.80;;;;;;20581180;28;20046;-75
2022/07/15 21:34:49;;;;;;;1.50;0.80;;;20.00;59.60;;;;;;20632026;28;20282;-75
2022/07/15 21:44:49;;;;;;;1.02;0.30;;;20.00;59.50;;;;;;20616309;28;20389;-77
2022/07/15 21:54:51;;;;;;;2.22;0.52;;;19.90;59.40;;;;;;20643513;28;20401;-77
2022/07/15 22:04:51;;;;;;;1.08;0.40;;;20.00;59.40;;;;;;20650419;28;20039;-75
2022/07/15 22:14:52;;;;;;;0.70;0.40;;;19.90;59.30;;;;;;20610613;28;20043;-74
2022/07/15 22:24:54;;;;;;;1.60;0.50;;;19.90;59.30;;;;;;20626203;28;20561;-75
2022/07/15 22:34:55;;;;;;;1.10;0.30;;;19.90;59.30;;;;;;20603288;28;20471;-76
2022/07/15 22:44:56;;;;;;;0.55;0.32;;;19.80;59.20;;;;;;20610723;28;20145;-75
2022/07/15 22:54:56;;;;;;;1.13;0.40;;;19.90;59.20;;;;;;20631293;28;20057;-75
2022/07/15 23:04:57;;;;;;;0.57;0.30;;;19.80;59.20;;;;;;20624557;28;20298;-76
2022/07/15 23:14:57;;;;;;;1.65;0.32;;;19.80;59.20;;;;;;20605993;28;20038;-75
2022/07/15 23:24:58;;;;;;;0.43;0.30;;;19.80;59.10;;;;;;20610397;28;20039;-76
2022/07/15 23:34:58;;;;;;;1.48;0.45;;;19.70;59.00;;;;;;20636904;28;20046;-75
2022/07/15 23:44:59;;;;;;;0.47;0.35;;;19.70;59.60;;;;;;20638229;28;20038;-76
2022/07/15 23:55:00;;;;;;;0.38;0.30;;;19.70;58.90;;;;;;20613026;28;20042;-75
